SBCTSBSR

Guest
Details From SBCT - Afonso Pena
To SBSR - SAO JOSE DO RIO PRETO
Flight Number -
Tags decoded
Created
Modified
Stats Distance 347 nm / 643 km
Max Altitude 0 ft / 0 m
Waypoints 3
Social Downloads 0
Likes 0
Share VATSIM

Download

Looking for another format? Having issues loading an existing format? Contact us
Advertisement - Login to hide

Notes

Requested: SBCT URUTU UZ25 ILSUM Z7 OBMAV UZ25 KOLBU W30 RCL W16 NIGRA SBSR Unmatched points: URUTU UZ25 ILSUM OBMAV UZ25 KOLBU W30 NIGRA

Route

SBCT RCL SBSR

ID Type Via Altitude Latitude Longitude Leg Dist Tot Dist Heading (true) Name
O SBCT APT - 0 ft / 0 m -25.52888˚ -49.17306˚ - 0 nm - Afonso Pena
RCL NDB - 0 ft / 0 m -22.43017˚ -47.56250˚ 206 nm 206 nm 26° / 25° RIO CLARO NDB
O SBSR APT - 0 ft / 0 m -20.81657˚ -49.40651˚ 141 nm 347 nm 313° / 314° SAO JOSE DO RIO PRETO

Altitude Profile

Advertisement - Login to hide

Weather


0- 5 10 15 20 25 30 35+ Temperature / ° C

Clouds and Precipitation
Forecast for 2017-12-12 12:00 UTC. Updated an hour ago

Ground ~20,000 ft ~40,000 ft Winds

SBCT

Details ICAO SBCT (CWB)
Name Afonso Pena
Region Brazil
Timezone America/Sao_Paulo (UTC-2.0)
Stats Elevation 2,988 ft / 911 m (AMSL)
Location -25.528885° -49.173062°
Runways 2
Magnetic Variation 19.612° W

METAR

SBCT 121200Z 14013KT 9000 -DZ OVC005 14/13 Q1021

Decode

TAF

TAF SBCT 120900Z 1212/1312 10010KT 9999 SCT030 SCT040 TX23/1217Z TN12/1307Z PROB30 1214/1220 10012KT 9999 SCT030 SCT040 BECMG 1306/1310 04005KT SCT010 RMK PDN

Decode

Departure Runways

ID Width Length Bearing (true) Bearing (mag) Surface Threshold Offset Overrun Length
11 148 ft / 45 m 5,909 ft / 1,801 m 91.79° 111.40° Asphalt 0 ft / 0 m 0 ft / 0 m
15 148 ft / 45 m 7,290 ft / 2,222 m 134.76° 154.37° Asphalt 0 ft / 0 m 190 ft / 58 m
29 148 ft / 45 m 5,909 ft / 1,801 m 271.78° 291.39° Asphalt 0 ft / 0 m 0 ft / 0 m
33 148 ft / 45 m 7,290 ft / 2,222 m 314.75° 334.36° Asphalt 0 ft / 0 m 185 ft / 56 m

SBSR

Details ICAO SBSR (SJP)
Name SAO JOSE DO RIO PRETO
Region Brazil
Timezone America/Sao_Paulo (UTC-2.0)
Stats Elevation 1,784 ft / 544 m (AMSL)
Location -20.816565° -49.406510°
Runways 1
Magnetic Variation 20.479° W

METAR

SBSR 121200Z 15011KT 9999 FEW035 26/18 Q1014

Decode

TAF

Not found

Destination Runways

ID Width Length Bearing (true) Bearing (mag) Surface Threshold Offset Overrun Length
07 115 ft / 35 m 5,373 ft / 1,638 m 51.42° 71.90° Asphalt 0 ft / 0 m 0 ft / 0 m
25 115 ft / 35 m 5,373 ft / 1,638 m 231.42° 251.90° Asphalt 0 ft / 0 m 0 ft / 0 m

Popular Alternatives